createdAt,value
2018-09-13T00:01:43.420Z,16.97
2018-09-13T00:04:11.964Z,16.96
2018-09-13T00:06:40.489Z,16.96
2018-09-13T00:09:09.999Z,16.88
2018-09-13T00:11:38.922Z,16.90
2018-09-13T00:14:07.527Z,16.53
2018-09-13T00:16:42.700Z,16.87
2018-09-13T00:19:18.330Z,16.90
2018-09-13T00:21:53.946Z,16.96
2018-09-13T00:24:28.531Z,16.93
2018-09-13T00:27:02.741Z,16.74
2018-09-13T00:29:36.522Z,16.66
2018-09-13T00:32:05.264Z,16.51
2018-09-13T00:34:33.790Z,16.56
2018-09-13T00:37:02.526Z,16.53
2018-09-13T00:39:31.031Z,16.68
2018-09-13T00:41:59.565Z,16.63
2018-09-13T00:44:28.066Z,16.48
2018-09-13T00:46:56.612Z,16.55
2018-09-13T00:49:25.161Z,16.36
2018-09-13T00:51:53.773Z,16.12
2018-09-13T00:54:22.778Z,16.21
2018-09-13T00:56:51.320Z,16.03
2018-09-13T00:59:19.833Z,15.91
2018-09-13T01:01:48.364Z,15.88
2018-09-13T01:04:16.923Z,16.13
2018-09-13T01:06:45.489Z,16.14
2018-09-13T01:09:13.993Z,16.17
2018-09-13T01:11:42.566Z,16.07
2018-09-13T01:14:11.076Z,16.08
2018-09-13T01:16:39.645Z,15.92
2018-09-13T01:19:08.158Z,16.02
2018-09-13T01:21:36.720Z,16.00
2018-09-13T01:24:05.273Z,16.07
2018-09-13T01:26:33.824Z,16.05
2018-09-13T01:29:02.417Z,16.15
2018-09-13T01:31:30.932Z,15.96
2018-09-13T01:33:59.476Z,16.14
2018-09-13T01:36:27.991Z,15.80
2018-09-13T01:38:56.824Z,15.74
2018-09-13T01:41:25.405Z,15.19
2018-09-13T01:43:53.991Z,15.35
2018-09-13T01:46:22.538Z,15.75
2018-09-13T01:48:51.092Z,15.73
2018-09-13T01:51:19.609Z,15.52
2018-09-13T01:53:48.159Z,15.41
2018-09-13T01:56:16.673Z,15.46
2018-09-13T01:58:45.229Z,15.65
2018-09-13T02:01:13.732Z,15.62
2018-09-13T02:03:42.297Z,15.74
2018-09-13T02:06:10.849Z,15.83
2018-09-13T02:08:39.397Z,15.80
2018-09-13T02:11:07.912Z,15.85
2018-09-13T02:13:36.461Z,15.84
2018-09-13T02:16:04.997Z,15.70
2018-09-13T02:18:33.604Z,15.76
2018-09-13T02:21:02.128Z,15.75
2018-09-13T02:23:30.682Z,15.68
2018-09-13T02:25:59.193Z,15.82
2018-09-13T02:28:27.752Z,15.76
2018-09-13T02:30:56.277Z,15.44
2018-09-13T02:33:24.875Z,15.67
2018-09-13T02:35:53.437Z,15.51
2018-09-13T02:38:21.981Z,15.25
2018-09-13T02:40:50.598Z,15.09
2018-09-13T02:43:19.140Z,15.33
2018-09-13T02:45:47.654Z,15.45
2018-09-13T02:48:16.213Z,15.56
2018-09-13T02:50:44.733Z,15.24
2018-09-13T02:53:13.285Z,15.14
2018-09-13T02:55:41.792Z,14.89
2018-09-13T02:58:10.358Z,15.25
2018-09-13T03:00:38.911Z,15.16
2018-09-13T03:03:07.460Z,15.13
2018-09-13T03:05:36.009Z,15.30
2018-09-13T03:08:04.582Z,15.20
2018-09-13T03:10:33.106Z,15.31
2018-09-13T03:13:01.661Z,15.20
2018-09-13T03:15:30.191Z,15.21
2018-09-13T03:17:58.771Z,15.28
2018-09-13T03:20:27.376Z,15.26
2018-09-13T03:22:55.954Z,15.43
2018-09-13T03:25:24.509Z,15.51
2018-09-13T03:27:53.185Z,15.32
2018-09-13T03:30:21.796Z,15.50
2018-09-13T03:32:50.444Z,15.40
2018-09-13T03:35:19.252Z,15.41
2018-09-13T03:37:47.772Z,15.37
2018-09-13T03:40:16.338Z,15.22
2018-09-13T03:42:44.852Z,15.14
2018-09-13T03:45:13.440Z,15.00
2018-09-13T03:47:42.028Z,15.32
2018-09-13T03:50:10.628Z,15.49
2018-09-13T03:52:39.144Z,14.96
2018-09-13T03:55:07.733Z,15.05
2018-09-13T03:57:36.447Z,15.22
2018-09-13T04:00:05.154Z,15.04
2018-09-13T04:02:33.676Z,15.10
2018-09-13T04:05:02.272Z,15.16
2018-09-13T04:07:30.795Z,15.26
2018-09-13T04:09:59.349Z,15.31
2018-09-13T04:12:27.875Z,15.23
2018-09-13T04:14:56.438Z,15.41
2018-09-13T04:17:24.987Z,15.37
2018-09-13T04:19:53.630Z,15.47
2018-09-13T04:22:22.165Z,15.53
2018-09-13T04:24:50.717Z,15.35
2018-09-13T04:27:19.236Z,15.44
2018-09-13T04:29:47.784Z,15.38
2018-09-13T04:32:16.293Z,15.49
2018-09-13T04:34:44.841Z,15.56
2018-09-13T04:37:13.362Z,15.51
2018-09-13T04:39:41.909Z,15.51
2018-09-13T04:42:10.432Z,15.57
2018-09-13T04:44:38.979Z,15.46
2018-09-13T04:47:07.496Z,15.51
2018-09-13T04:49:36.057Z,15.65
2018-09-13T04:52:06.045Z,15.58
2018-09-13T04:54:35.090Z,15.62
2018-09-13T04:57:03.741Z,15.70
2018-09-13T04:59:34.463Z,15.70
2018-09-13T05:02:03.117Z,15.67
2018-09-13T05:04:31.713Z,15.48
2018-09-13T05:07:00.333Z,15.54
2018-09-13T05:09:33.417Z,15.49
2018-09-13T05:12:01.940Z,15.39
2018-09-13T05:14:38.382Z,15.51
2018-09-13T05:17:07.256Z,15.41
2018-09-13T05:19:35.825Z,15.37
2018-09-13T05:22:04.350Z,15.51
2018-09-13T05:24:33.425Z,15.59
2018-09-13T05:27:03.914Z,15.48
2018-09-13T05:29:32.925Z,15.28
2018-09-13T05:32:01.485Z,15.16
2018-09-13T05:34:30.014Z,15.32
2018-09-13T05:36:58.556Z,15.49
2018-09-13T05:39:27.350Z,15.41
2018-09-13T05:41:56.622Z,15.47
2018-09-13T05:44:25.195Z,15.46
2018-09-13T05:46:53.748Z,15.41
2018-09-13T05:49:22.260Z,15.63
2018-09-13T05:51:50.821Z,15.68
2018-09-13T05:54:19.349Z,15.78
2018-09-13T05:56:47.916Z,15.80
2018-09-13T05:59:16.431Z,15.83
2018-09-13T06:01:44.993Z,15.92
2018-09-13T06:04:13.540Z,16.03
2018-09-13T06:06:42.945Z,15.93
2018-09-13T06:09:11.454Z,15.95
2018-09-13T06:11:40.008Z,15.88
2018-09-13T06:14:08.529Z,15.94
2018-09-13T06:16:37.406Z,16.08
2018-09-13T06:19:05.985Z,16.24
2018-09-13T06:21:34.534Z,16.43
2018-09-13T06:24:03.065Z,16.38
2018-09-13T06:26:31.619Z,16.49
2018-09-13T06:29:00.164Z,16.67
2018-09-13T06:31:28.786Z,16.78
2018-09-13T06:33:57.328Z,16.91
2018-09-13T06:36:25.903Z,16.97
2018-09-13T06:38:54.450Z,17.02
2018-09-13T06:41:23.014Z,17.07
2018-09-13T06:43:51.581Z,17.06
2018-09-13T06:46:20.159Z,17.09
2018-09-13T06:48:48.732Z,17.30
2018-09-13T06:51:17.288Z,17.32
2018-09-13T06:53:45.795Z,17.49
2018-09-13T06:56:14.352Z,17.61
2018-09-13T06:58:42.876Z,17.66
2018-09-13T07:01:11.497Z,17.78
2018-09-13T07:03:40.075Z,17.78
2018-09-13T07:06:08.701Z,17.84
2018-09-13T07:08:37.243Z,18.12
2018-09-13T07:11:05.926Z,18.17
2018-09-13T07:13:34.476Z,18.43
2018-09-13T07:16:03.032Z,18.46
2018-09-13T07:18:31.557Z,18.57
2018-09-13T07:21:00.126Z,18.42
2018-09-13T07:23:28.723Z,18.64
2018-09-13T07:25:57.257Z,18.77
2018-09-13T07:28:25.849Z,18.73
2018-09-13T07:30:54.418Z,18.68
2018-09-13T07:33:22.958Z,18.69
2018-09-13T07:35:51.477Z,18.73
2018-09-13T07:38:20.038Z,18.81
2018-09-13T07:40:48.573Z,18.91
2018-09-13T07:43:17.215Z,18.72
2018-09-13T07:45:45.785Z,18.77
2018-09-13T07:48:14.333Z,18.78
2018-09-13T07:50:42.845Z,18.88
2018-09-13T07:53:11.430Z,19.03
2018-09-13T07:55:40.015Z,18.95
2018-09-13T07:58:08.652Z,19.04
2018-09-13T08:00:37.220Z,19.08
2018-09-13T08:03:06.052Z,19.24
2018-09-13T08:05:34.618Z,19.18
2018-09-13T08:08:03.177Z,19.02
2018-09-13T08:10:31.701Z,19.02
2018-09-13T08:13:00.366Z,19.16
2018-09-13T08:15:28.893Z,19.17
2018-09-13T08:17:57.432Z,19.19
2018-09-13T08:20:25.957Z,19.18
2018-09-13T08:22:54.848Z,19.25
2018-09-13T08:25:23.357Z,19.29
2018-09-13T08:27:51.904Z,19.38
2018-09-13T08:30:20.441Z,19.48
2018-09-13T08:32:49.006Z,19.43
2018-09-13T08:35:17.516Z,19.49
2018-09-13T08:37:46.061Z,19.48
2018-09-13T08:40:14.592Z,19.75
2018-09-13T08:42:43.144Z,19.61
2018-09-13T08:45:11.672Z,19.51
2018-09-13T08:47:40.355Z,19.87
2018-09-13T08:50:08.841Z,20.02
2018-09-13T08:52:37.401Z,19.96
2018-09-13T08:55:09.306Z,20.15
2018-09-13T08:57:38.145Z,20.25
2018-09-13T09:00:08.881Z,20.33
2018-09-13T09:02:37.445Z,20.34
2018-09-13T09:05:06.321Z,20.24
2018-09-13T09:07:35.373Z,20.37
2018-09-13T09:10:06.924Z,20.42
2018-09-13T09:12:35.534Z,20.69
2018-09-13T09:15:04.160Z,20.81
2018-09-13T09:17:32.740Z,20.85
2018-09-13T09:20:01.286Z,20.90
2018-09-13T09:22:29.811Z,20.78
2018-09-13T09:24:58.379Z,20.83
2018-09-13T09:27:27.525Z,20.95
2018-09-13T09:29:56.211Z,20.95
2018-09-13T09:32:25.092Z,20.96
2018-09-13T09:34:53.719Z,20.83
2018-09-13T09:37:22.234Z,20.88
2018-09-13T09:39:50.829Z,20.75
2018-09-13T09:42:19.325Z,20.73
2018-09-13T09:44:47.873Z,20.93
2018-09-13T09:47:16.417Z,20.85
2018-09-13T09:49:44.972Z,20.98
2018-09-13T09:52:13.557Z,21.01
2018-09-13T09:54:42.068Z,21.13
2018-09-13T09:57:10.635Z,21.27
2018-09-13T09:59:39.152Z,21.28
2018-09-13T10:02:12.690Z,21.29
2018-09-13T10:04:41.340Z,21.30
2018-09-13T10:07:09.829Z,21.34
2018-09-13T10:09:38.467Z,21.23
2018-09-13T10:12:06.961Z,21.21
2018-09-13T10:14:35.512Z,21.04
2018-09-13T10:17:09.350Z,21.23
2018-09-13T10:19:42.901Z,21.18
2018-09-13T10:22:16.756Z,21.37
2018-09-13T10:24:50.500Z,21.20
2018-09-13T10:27:24.479Z,21.54
2018-09-13T10:29:58.236Z,21.36
2018-09-13T10:32:31.931Z,21.28
2018-09-13T10:35:05.723Z,21.19
2018-09-13T10:37:40.385Z,21.27
2018-09-13T10:40:14.389Z,21.44
2018-09-13T10:42:48.037Z,21.41
2018-09-13T10:45:21.917Z,21.27
2018-09-13T10:47:56.924Z,21.52
2018-09-13T10:50:25.042Z,21.65
2018-09-13T10:53:04.863Z,21.62
2018-09-13T10:55:33.486Z,21.64
2018-09-13T10:58:02.025Z,21.37
2018-09-13T11:00:30.690Z,21.52
2018-09-13T11:02:59.825Z,21.49
2018-09-13T11:05:28.458Z,21.41
2018-09-13T11:07:57.033Z,21.48
2018-09-13T11:10:25.807Z,21.58
2018-09-13T11:12:59.441Z,21.64
2018-09-13T11:15:35.989Z,21.68
2018-09-13T11:18:05.953Z,21.67
2018-09-13T11:20:34.765Z,21.61
2018-09-13T11:23:03.288Z,21.56
2018-09-13T11:25:31.847Z,21.62
2018-09-13T11:28:00.370Z,21.79
2018-09-13T11:30:28.977Z,21.76
2018-09-13T11:32:57.773Z,21.75
2018-09-13T11:35:36.933Z,21.60
2018-09-13T11:38:05.649Z,21.66
2018-09-13T11:40:34.759Z,21.72
2018-09-13T11:43:03.161Z,21.60
2018-09-13T11:45:31.704Z,21.56
2018-09-13T11:48:00.216Z,21.57
2018-09-13T11:50:28.911Z,21.54
2018-09-13T11:52:57.748Z,21.43
2018-09-13T11:55:26.629Z,21.33
2018-09-13T11:57:57.082Z,21.24
2018-09-13T12:00:25.834Z,21.24
2018-09-13T12:02:54.404Z,21.04
2018-09-13T12:05:22.961Z,21.31
2018-09-13T12:07:51.580Z,21.33
2018-09-13T12:10:20.098Z,21.39
2018-09-13T12:12:49.576Z,21.39
2018-09-13T12:15:18.105Z,21.43
2018-09-13T12:17:46.695Z,21.43
2018-09-13T12:20:15.192Z,21.53
2018-09-13T12:22:43.735Z,21.22
2018-09-13T12:25:13.386Z,21.10
2018-09-13T12:27:43.840Z,20.93
2018-09-13T12:30:13.240Z,20.97
2018-09-13T12:32:44.473Z,21.02
2018-09-13T12:35:16.424Z,21.08
2018-09-13T12:37:49.433Z,20.85
2018-09-13T12:40:23.842Z,20.85
2018-09-13T12:42:56.208Z,20.81
2018-09-13T12:45:29.413Z,20.82
2018-09-13T12:48:03.743Z,20.53
2018-09-13T12:50:34.296Z,20.34
2018-09-13T12:53:06.692Z,20.16
2018-09-13T12:55:43.811Z,20.19
2018-09-13T12:58:14.069Z,20.03
2018-09-13T13:00:48.700Z,20.11
2018-09-13T13:03:22.233Z,20.17
2018-09-13T13:05:52.784Z,20.22
2018-09-13T13:08:22.942Z,20.20
2018-09-13T13:10:53.334Z,20.10
2018-09-13T13:13:30.282Z,20.20
2018-09-13T13:16:05.474Z,20.22
2018-09-13T13:18:37.817Z,20.00
2018-09-13T13:21:11.142Z,20.04
2018-09-13T13:23:44.099Z,20.04
2018-09-13T13:26:14.186Z,20.07
2018-09-13T13:28:42.774Z,19.97
2018-09-13T13:31:16.093Z,20.08
2018-09-13T13:33:51.318Z,19.87
2018-09-13T13:36:22.915Z,19.95
2018-09-13T13:38:55.208Z,20.01
2018-09-13T13:41:30.277Z,20.16
2018-09-13T13:44:02.156Z,20.16
2018-09-13T13:46:35.353Z,20.06
2018-09-13T13:49:05.049Z,19.97
2018-09-13T13:51:40.077Z,19.84
2018-09-13T13:54:14.337Z,19.79
2018-09-13T13:56:46.218Z,19.96
2018-09-13T13:59:16.532Z,20.00
2018-09-13T14:01:47.497Z,19.90
2018-09-13T14:04:20.448Z,19.93
2018-09-13T14:06:53.971Z,19.94
2018-09-13T14:09:27.792Z,19.67
2018-09-13T14:11:57.928Z,19.94
2018-09-13T14:14:29.647Z,20.03
2018-09-13T14:17:00.855Z,20.01
2018-09-13T14:19:32.885Z,19.67
2018-09-13T14:22:09.882Z,19.97
2018-09-13T14:24:47.006Z,19.85
2018-09-13T14:27:15.652Z,20.00
2018-09-13T14:29:48.672Z,19.77
2018-09-13T14:32:22.665Z,19.96
2018-09-13T14:34:55.474Z,19.80
2018-09-13T14:37:29.697Z,20.06
2018-09-13T14:40:02.900Z,20.07
2018-09-13T14:42:34.593Z,20.05
2018-09-13T14:45:04.519Z,20.16
2018-09-13T14:47:35.987Z,20.48
2018-09-13T14:50:10.952Z,20.42
2018-09-13T14:52:41.208Z,20.52
2018-09-13T14:55:11.193Z,20.62
2018-09-13T14:57:39.808Z,20.40
2018-09-13T15:00:12.786Z,20.63
2018-09-13T15:02:44.992Z,20.99
2018-09-13T15:05:18.775Z,21.36
2018-09-13T15:07:50.439Z,21.56
2018-09-13T15:10:21.621Z,21.63
2018-09-13T15:12:54.315Z,21.16
2018-09-13T15:15:26.896Z,20.96
2018-09-13T15:17:57.316Z,20.96
2018-09-13T15:20:29.108Z,21.03
2018-09-13T15:23:03.440Z,21.03
2018-09-13T15:25:32.151Z,20.61
2018-09-13T15:28:00.738Z,20.68
2018-09-13T15:30:29.293Z,20.52
2018-09-13T15:34:01.038Z,20.42
2018-09-13T15:36:33.802Z,20.47
2018-09-13T15:39:10.748Z,20.47
2018-09-13T15:41:40.927Z,20.26
2018-09-13T15:44:12.423Z,20.47
2018-09-13T15:46:41.673Z,20.47
2018-09-13T15:49:15.206Z,20.53
2018-09-13T15:51:50.260Z,20.73
2018-09-13T15:54:20.953Z,20.86
2018-09-13T15:56:49.787Z,20.67
2018-09-13T15:59:18.849Z,20.52
2018-09-13T16:01:47.548Z,20.70
2018-09-13T16:04:19.310Z,20.78
2018-09-13T16:06:48.588Z,20.57
2018-09-13T16:09:19.285Z,20.54
2018-09-13T16:11:49.548Z,20.82
2018-09-13T16:14:18.066Z,20.67
2018-09-13T16:16:46.706Z,20.58
2018-09-13T16:19:20.346Z,20.46
2018-09-13T16:21:50.620Z,20.31
2018-09-13T16:24:26.704Z,20.37
2018-09-13T16:26:55.921Z,20.16
2018-09-13T16:29:27.437Z,20.42
2018-09-13T16:32:00.583Z,20.33
2018-09-13T16:34:29.517Z,20.32
2018-09-13T16:37:11.205Z,20.40
2018-09-13T16:39:44.864Z,20.53
2018-09-13T16:42:18.720Z,20.34
2018-09-13T16:44:53.740Z,20.27
2018-09-13T16:47:29.268Z,20.17
2018-09-13T16:49:58.744Z,20.07
2018-09-13T16:52:28.040Z,20.07
2018-09-13T16:55:02.988Z,20.41
2018-09-13T16:57:31.528Z,20.15
2018-09-13T17:00:00.048Z,20.16
2018-09-13T17:02:28.608Z,20.19
2018-09-13T17:04:57.924Z,20.33
2018-09-13T17:07:26.567Z,20.08
2018-09-13T17:09:55.092Z,19.98
2018-09-13T17:12:24.485Z,20.09
2018-09-13T17:14:53.082Z,19.77
2018-09-13T17:17:21.636Z,19.91
2018-09-13T17:19:50.236Z,19.81
2018-09-13T17:22:18.784Z,19.93
2018-09-13T17:24:47.409Z,19.80
2018-09-13T17:27:16.036Z,19.72
2018-09-13T17:29:51.128Z,19.54
2018-09-13T17:32:20.116Z,19.55
2018-09-13T17:34:48.707Z,19.40
2018-09-13T17:37:17.251Z,19.37
2018-09-13T17:39:46.053Z,19.43
2018-09-13T17:42:14.740Z,19.33
2018-09-13T17:44:43.308Z,19.29
2018-09-13T17:47:11.828Z,19.23
2018-09-13T17:49:40.381Z,19.33
2018-09-13T17:52:09.053Z,19.36
2018-09-13T17:54:37.608Z,19.25
2018-09-13T17:57:06.289Z,19.14
2018-09-13T17:59:34.844Z,19.24
2018-09-13T18:02:03.364Z,19.17
2018-09-13T18:04:31.945Z,19.06
2018-09-13T18:07:00.510Z,19.08
2018-09-13T18:09:29.077Z,19.08
2018-09-13T18:11:57.877Z,18.90
2018-09-13T18:14:26.412Z,18.83
2018-09-13T18:16:54.917Z,18.79
2018-09-13T18:19:26.220Z,18.78
2018-09-13T18:21:54.784Z,18.81
2018-09-13T18:24:23.325Z,18.82
2018-09-13T18:26:51.848Z,18.94
2018-09-13T18:29:20.406Z,18.93
2018-09-13T18:31:50.486Z,18.89
2018-09-13T18:34:19.024Z,18.85
2018-09-13T18:36:47.541Z,18.74
2018-09-13T18:39:16.091Z,18.76
2018-09-13T18:41:44.600Z,18.82
2018-09-13T18:44:13.140Z,18.80
2018-09-13T18:46:41.660Z,18.66
2018-09-13T18:49:10.203Z,18.58
2018-09-13T18:51:38.732Z,18.59
2018-09-13T18:54:07.292Z,18.62
2018-09-13T18:56:35.840Z,18.65
2018-09-13T18:59:04.657Z,18.61
2018-09-13T19:01:33.321Z,18.62
2018-09-13T19:04:01.872Z,18.52
2018-09-13T19:06:30.420Z,18.49
2018-09-13T19:08:58.967Z,18.38
2018-09-13T19:11:27.745Z,18.43
2018-09-13T19:13:56.301Z,18.27
2018-09-13T19:16:25.276Z,18.09
2018-09-13T19:18:58.833Z,18.02
2018-09-13T19:21:28.606Z,17.91
2018-09-13T19:23:58.537Z,17.93
2018-09-13T19:26:27.808Z,17.91
2018-09-13T19:28:56.317Z,17.96
2018-09-13T19:31:24.877Z,17.91
2018-09-13T19:33:54.914Z,17.92
2018-09-13T19:36:26.474Z,17.88
2018-09-13T19:38:55.751Z,17.84
2018-09-13T19:41:25.065Z,17.89
2018-09-13T19:43:54.771Z,17.81
2018-09-13T19:46:24.125Z,17.79
2018-09-13T19:48:54.169Z,17.72
2018-09-13T19:51:22.804Z,17.70
2018-09-13T19:53:56.031Z,17.74
2018-09-13T19:56:36.289Z,17.84
2018-09-13T19:59:08.296Z,17.72
2018-09-13T20:01:41.556Z,17.70
2018-09-13T20:04:10.612Z,17.59
2018-09-13T20:06:42.501Z,17.56
2018-09-13T20:09:12.500Z,17.59
2018-09-13T20:11:44.636Z,17.51
2018-09-13T20:14:22.184Z,17.58
2018-09-13T20:16:50.919Z,17.60
2018-09-13T20:19:20.493Z,17.46
2018-09-13T20:21:49.940Z,17.43
2018-09-13T20:24:25.759Z,17.49
2018-09-13T20:26:55.069Z,17.43
2018-09-13T20:29:24.821Z,17.50
2018-09-13T20:32:05.334Z,17.53
2018-09-13T20:34:40.096Z,17.57
2018-09-13T20:37:16.551Z,17.50
2018-09-13T20:39:47.544Z,17.50
2018-09-13T20:42:16.291Z,17.44
2018-09-13T20:44:49.620Z,17.40
2018-09-13T20:47:20.423Z,17.39
2018-09-13T20:49:50.929Z,17.40
2018-09-13T20:52:19.588Z,17.16
2018-09-13T20:54:53.574Z,17.23
2018-09-13T20:57:27.934Z,17.18
2018-09-13T21:00:02.681Z,17.23
2018-09-13T21:02:34.492Z,17.27
2018-09-13T21:05:03.916Z,17.25
2018-09-13T21:07:33.572Z,17.17
2018-09-13T21:10:10.475Z,17.25
2018-09-13T21:12:41.834Z,17.12
2018-09-13T21:15:14.161Z,17.02
2018-09-13T21:17:43.620Z,17.14
2018-09-13T21:20:16.232Z,17.19
2018-09-13T21:22:46.279Z,17.08
2018-09-13T21:25:17.757Z,17.12
2018-09-13T21:27:46.372Z,17.07
2018-09-13T21:30:14.907Z,17.00
2018-09-13T21:32:45.567Z,16.96
2018-09-13T21:35:15.597Z,17.13
2018-09-13T21:37:46.035Z,17.10
2018-09-13T21:40:19.627Z,17.05
2018-09-13T21:42:51.242Z,17.02
2018-09-13T21:45:22.408Z,16.85
2018-09-13T21:47:51.699Z,16.92
2018-09-13T21:50:23.957Z,16.95
2018-09-13T21:52:55.375Z,17.07
2018-09-13T21:55:28.037Z,17.04
2018-09-13T21:57:58.625Z,17.06
2018-09-13T22:00:29.447Z,17.08
2018-09-13T22:03:01.528Z,17.03
2018-09-13T22:05:31.208Z,17.05
2018-09-13T22:08:01.546Z,16.99
2018-09-13T22:10:33.756Z,16.97
2018-09-13T22:13:06.438Z,16.90
2018-09-13T22:15:38.032Z,16.95
2018-09-13T22:18:11.206Z,16.87
2018-09-13T22:20:45.637Z,16.98
2018-09-13T22:23:17.649Z,17.03
2018-09-13T22:25:46.882Z,16.97
2018-09-13T22:28:15.689Z,16.91
2018-09-13T22:30:47.900Z,16.90
2018-09-13T22:33:22.216Z,16.78
2018-09-13T22:35:55.444Z,16.93
2018-09-13T22:38:26.471Z,16.95
2018-09-13T22:40:55.947Z,17.01
2018-09-13T22:43:34.690Z,16.84
2018-09-13T22:46:05.944Z,16.92
2018-09-13T22:48:40.337Z,16.86
2018-09-13T22:51:13.359Z,16.84
2018-09-13T22:53:47.201Z,16.89
2018-09-13T22:56:17.677Z,16.88
2018-09-13T22:58:50.195Z,16.74
2018-09-13T23:01:21.124Z,16.70
2018-09-13T23:03:53.594Z,16.71
2018-09-13T23:06:22.947Z,16.54
2018-09-13T23:08:54.451Z,16.54
2018-09-13T23:11:24.748Z,16.65
2018-09-13T23:13:55.421Z,16.79
2018-09-13T23:16:27.790Z,16.63
2018-09-13T23:18:57.673Z,16.73
2018-09-13T23:21:26.835Z,16.72
2018-09-13T23:23:55.423Z,16.52
2018-09-13T23:26:25.339Z,16.46
2018-09-13T23:28:54.629Z,16.51
2018-09-13T23:31:23.152Z,16.50
2018-09-13T23:33:51.706Z,16.56
2018-09-13T23:36:26.850Z,16.49
2018-09-13T23:38:55.467Z,16.48
2018-09-13T23:41:23.988Z,16.48
2018-09-13T23:43:53.644Z,16.59
2018-09-13T23:46:22.179Z,16.44
2018-09-13T23:48:50.725Z,16.41
2018-09-13T23:51:19.240Z,16.48
2018-09-13T23:53:47.825Z,16.42
2018-09-13T23:56:16.375Z,16.49
2018-09-13T23:58:44.936Z,16.26
